sensor_id;sensor_type;location;lat;lon;timestamp;temperature;humidity
11246;DHT22;59870;50.106;8.580;2022-12-24T10:27:38;14.50;99.30
11246;DHT22;59870;50.106;8.580;2022-12-24T10:43:37;14.80;99.00
11246;DHT22;59870;50.106;8.580;2022-12-24T11:04:25;15.00;98.70
11246;DHT22;59870;50.106;8.580;2022-12-24T11:07:04;14.70;98.20
11246;DHT22;59870;50.106;8.580;2022-12-24T11:09:36;15.00;98.60
11246;DHT22;59870;50.106;8.580;2022-12-24T11:17:19;14.70;98.10
11246;DHT22;59870;50.106;8.580;2022-12-24T11:19:49;15.10;98.40
11246;DHT22;59870;50.106;8.580;2022-12-24T11:25:57;15.20;98.50
11246;DHT22;59870;50.106;8.580;2022-12-24T11:28:29;15.50;98.30
11246;DHT22;59870;50.106;8.580;2022-12-24T11:31:05;15.50;98.80
11246;DHT22;59870;50.106;8.580;2022-12-24T11:37:21;15.30;98.60
11246;DHT22;59870;50.106;8.580;2022-12-24T11:44:25;15.50;98.80
11246;DHT22;59870;50.106;8.580;2022-12-24T11:46:54;15.50;98.20
11246;DHT22;59870;50.106;8.580;2022-12-24T11:49:50;15.50;98.10
11246;DHT22;59870;50.106;8.580;2022-12-24T12:05:08;15.70;98.60
11246;DHT22;59870;50.106;8.580;2022-12-24T12:16:31;15.70;98.70
11246;DHT22;59870;50.106;8.580;2022-12-24T12:20:17;15.60;98.00
11246;DHT22;59870;50.106;8.580;2022-12-24T12:22:55;15.90;98.20
11246;DHT22;59870;50.106;8.580;2022-12-24T12:25:51;16.20;98.40
11246;DHT22;59870;50.106;8.580;2022-12-24T12:28:37;16.30;98.50
11246;DHT22;59870;50.106;8.580;2022-12-24T12:33:51;16.00;97.70
11246;DHT22;59870;50.106;8.580;2022-12-24T12:36:28;16.00;97.60
11246;DHT22;59870;50.106;8.580;2022-12-24T12:38:57;16.00;97.50
11246;DHT22;59870;50.106;8.580;2022-12-24T12:59:13;16.00;96.90
11246;DHT22;59870;50.106;8.580;2022-12-24T13:18:11;15.90;96.70
11246;DHT22;59870;50.106;8.580;2022-12-24T13:22:22;15.60;96.60
11246;DHT22;59870;50.106;8.580;2022-12-24T13:24:54;16.20;96.90
11246;DHT22;59870;50.106;8.580;2022-12-24T13:27:30;15.90;96.90
11246;DHT22;59870;50.106;8.580;2022-12-24T13:30:34;15.80;97.00
11246;DHT22;59870;50.106;8.580;2022-12-24T13:33:12;15.90;97.10
11246;DHT22;59870;50.106;8.580;2022-12-24T13:35:59;15.90;97.00
11246;DHT22;59870;50.106;8.580;2022-12-24T13:38:40;16.10;97.20
11246;DHT22;59870;50.106;8.580;2022-12-24T13:49:38;16.20;97.10
11246;DHT22;59870;50.106;8.580;2022-12-24T13:55:00;15.80;96.80
11246;DHT22;59870;50.106;8.580;2022-12-24T13:57:53;15.70;96.90
11246;DHT22;59870;50.106;8.580;2022-12-24T14:00:41;15.70;96.90
11246;DHT22;59870;50.106;8.580;2022-12-24T14:05:45;15.70;96.90
11246;DHT22;59870;50.106;8.580;2022-12-24T14:08:36;15.70;96.90
11246;DHT22;59870;50.106;8.580;2022-12-24T14:11:15;15.30;96.60
11246;DHT22;59870;50.106;8.580;2022-12-24T14:16:31;15.70;96.70
11246;DHT22;59870;50.106;8.580;2022-12-24T14:21:56;16.10;97.00
11246;DHT22;59870;50.106;8.580;2022-12-24T14:24:36;15.60;96.80
11246;DHT22;59870;50.106;8.580;2022-12-24T14:27:20;15.60;96.80
11246;DHT22;59870;50.106;8.580;2022-12-24T14:30:18;15.60;96.80
11246;DHT22;59870;50.106;8.580;2022-12-24T14:32:46;15.60;96.80
11246;DHT22;59870;50.106;8.580;2022-12-24T14:35:20;15.60;96.80
11246;DHT22;59870;50.106;8.580;2022-12-24T14:40:28;15.60;96.90
11246;DHT22;59870;50.106;8.580;2022-12-24T14:45:52;15.50;96.90
11246;DHT22;59870;50.106;8.580;2022-12-24T14:54:32;15.50;97.10
11246;DHT22;59870;50.106;8.580;2022-12-24T14:57:13;15.50;97.10
11246;DHT22;59870;50.106;8.580;2022-12-24T14:59:57;15.50;97.10
11246;DHT22;59870;50.106;8.580;2022-12-24T15:02:42;15.50;97.20
11246;DHT22;59870;50.106;8.580;2022-12-24T15:05:12;15.40;97.10
11246;DHT22;59870;50.106;8.580;2022-12-24T15:10:41;15.50;97.10
11246;DHT22;59870;50.106;8.580;2022-12-24T15:13:30;15.40;97.00
11246;DHT22;59870;50.106;8.580;2022-12-24T15:16:06;15.40;96.90
11246;DHT22;59870;50.106;8.580;2022-12-24T15:18:37;15.40;97.00
11246;DHT22;59870;50.106;8.580;2022-12-24T15:21:07;15.40;97.00
11246;DHT22;59870;50.106;8.580;2022-12-24T15:23:48;15.30;97.10
11246;DHT22;59870;50.106;8.580;2022-12-24T15:28:51;15.60;97.20
11246;DHT22;59870;50.106;8.580;2022-12-24T15:31:29;15.30;97.20
11246;DHT22;59870;50.106;8.580;2022-12-24T15:33:58;15.20;97.50
11246;DHT22;59870;50.106;8.580;2022-12-24T15:36:29;15.20;97.30
11246;DHT22;59870;50.106;8.580;2022-12-24T15:39:01;15.20;97.40
11246;DHT22;59870;50.106;8.580;2022-12-24T15:41:36;15.20;97.40
11246;DHT22;59870;50.106;8.580;2022-12-24T15:44:04;15.20;97.40
11246;DHT22;59870;50.106;8.580;2022-12-24T15:46:41;15.10;97.20
11246;DHT22;59870;50.106;8.580;2022-12-24T15:49:14;15.20;97.30
11246;DHT22;59870;50.106;8.580;2022-12-24T15:51:42;15.10;97.30
11246;DHT22;59870;50.106;8.580;2022-12-24T15:54:12;15.10;97.30
11246;DHT22;59870;50.106;8.580;2022-12-24T15:56:45;15.10;97.30
11246;DHT22;59870;50.106;8.580;2022-12-24T15:59:29;15.10;97.00
11246;DHT22;59870;50.106;8.580;2022-12-24T16:02:39;15.00;97.20
11246;DHT22;59870;50.106;8.580;2022-12-24T16:05:33;15.00;97.10
11246;DHT22;59870;50.106;8.580;2022-12-24T16:08:21;15.00;97.10
11246;DHT22;59870;50.106;8.580;2022-12-24T16:11:16;15.20;97.20
11246;DHT22;59870;50.106;8.580;2022-12-24T16:15:11;14.90;97.20
11246;DHT22;59870;50.106;8.580;2022-12-24T16:39:05;14.70;97.50
11246;DHT22;59870;50.106;8.580;2022-12-24T16:41:52;14.60;97.50
